createdAt,value
2023-01-18T00:00:20.943Z,21.83
2023-01-18T00:05:24.055Z,22.42
2023-01-18T00:10:26.903Z,23.90
2023-01-18T00:15:30.859Z,23.50
2023-01-18T00:20:33.402Z,23.02
2023-01-18T00:25:35.999Z,23.50
2023-01-18T00:30:39.932Z,23.23
2023-01-18T00:35:42.516Z,24.75
2023-01-18T00:40:45.161Z,24.38
2023-01-18T00:45:47.728Z,24.90
2023-01-18T00:50:50.245Z,25.83
2023-01-18T00:55:52.798Z,25.02
2023-01-18T01:00:55.523Z,25.63
2023-01-18T01:06:17.073Z,24.67
2023-01-18T01:11:19.727Z,25.35
2023-01-18T01:16:41.468Z,26.20
2023-01-18T01:22:02.852Z,25.63
2023-01-18T01:27:05.430Z,27.33
2023-01-18T01:32:08.487Z,26.13
2023-01-18T01:37:11.086Z,27.30
2023-01-18T01:42:13.612Z,24.83
2023-01-18T01:47:39.818Z,25.38
2023-01-18T01:52:45.899Z,25.13
2023-01-18T01:58:11.601Z,26.35
2023-01-18T02:03:20.293Z,24.75
2023-01-18T02:08:23.438Z,24.67
2023-01-18T02:13:26.750Z,24.10
2023-01-18T02:18:40.504Z,24.23
2023-01-18T02:24:07.349Z,22.73
2023-01-18T02:29:18.939Z,22.40
2023-01-18T02:34:41.689Z,23.48
2023-01-18T02:40:13.894Z,21.35
2023-01-18T02:45:44.223Z,22.67
2023-01-18T02:50:48.909Z,24.10
2023-01-18T02:56:18.975Z,22.58
2023-01-18T03:01:37.040Z,25.02
2023-01-18T03:06:42.897Z,24.02
2023-01-18T03:11:50.944Z,25.20
2023-01-18T03:17:17.945Z,26.55
2023-01-18T03:22:40.581Z,27.10
2023-01-18T03:28:04.314Z,26.85
2023-01-18T03:33:27.203Z,26.73
2023-01-18T03:38:31.968Z,26.42
2023-01-18T03:43:37.943Z,25.38
2023-01-18T03:48:40.724Z,25.23
2023-01-18T03:53:56.129Z,24.50
2023-01-18T03:59:03.400Z,24.58
2023-01-18T04:04:05.966Z,25.80
2023-01-18T04:09:08.643Z,23.90
2023-01-18T04:14:11.178Z,25.30
2023-01-18T04:19:13.801Z,22.98
2023-01-18T04:24:17.381Z,24.60
2023-01-18T04:29:19.962Z,23.95
2023-01-18T04:34:23.115Z,24.17
2023-01-18T04:39:25.757Z,24.20
2023-01-18T04:44:28.354Z,24.23
2023-01-18T04:49:33.210Z,22.38
2023-01-18T04:54:35.780Z,22.60
2023-01-18T04:59:39.411Z,21.33
2023-01-18T05:04:42.152Z,21.75
2023-01-18T05:09:44.740Z,23.13
2023-01-18T05:14:47.317Z,20.73
2023-01-18T05:19:49.910Z,20.35
2023-01-18T05:24:52.527Z,21.23
2023-01-18T05:29:55.068Z,21.23
2023-01-18T05:34:57.610Z,20.02
2023-01-18T05:40:00.306Z,22.20
2023-01-18T05:45:02.970Z,21.70
2023-01-18T05:50:07.290Z,21.42
2023-01-18T05:55:09.863Z,20.58
2023-01-18T06:00:12.729Z,20.77
2023-01-18T06:05:16.072Z,20.45
2023-01-18T06:10:19.068Z,19.45
2023-01-18T06:15:21.666Z,21.17
2023-01-18T06:20:25.036Z,20.30
2023-01-18T06:25:27.752Z,21.25
2023-01-18T06:30:30.382Z,20.80
2023-01-18T06:35:37.138Z,21.33
2023-01-18T06:40:39.872Z,19.90
2023-01-18T06:45:42.583Z,20.50
2023-01-18T06:50:45.190Z,20.50
2023-01-18T06:55:59.069Z,20.95
2023-01-18T07:01:01.852Z,19.83
2023-01-18T07:06:05.907Z,20.92
2023-01-18T07:11:10.467Z,20.15
2023-01-18T07:16:17.630Z,21.73
2023-01-18T07:21:22.935Z,20.55
2023-01-18T07:26:26.245Z,20.80
2023-01-18T07:31:30.348Z,19.88
2023-01-18T07:36:32.983Z,20.25
2023-01-18T07:41:35.529Z,19.98
2023-01-18T07:46:38.690Z,20.40
2023-01-18T07:51:42.647Z,20.15
2023-01-18T07:56:45.336Z,19.38
2023-01-18T08:01:47.891Z,18.63
2023-01-18T08:06:51.435Z,20.33
2023-01-18T08:11:54.093Z,19.98
2023-01-18T08:16:56.738Z,20.15
2023-01-18T08:21:59.289Z,18.73
2023-01-18T08:27:01.961Z,18.60
2023-01-18T08:32:04.665Z,19.10
2023-01-18T08:37:07.322Z,20.42
2023-01-18T08:42:12.852Z,19.90
2023-01-18T08:47:16.158Z,19.70
2023-01-18T08:52:18.724Z,18.70
2023-01-18T08:57:21.801Z,21.38
2023-01-18T09:02:27.415Z,21.98
2023-01-18T09:07:30.039Z,18.52
2023-01-18T09:12:34.928Z,20.17
2023-01-18T09:17:37.529Z,20.52
2023-01-18T09:22:40.201Z,19.67
2023-01-18T09:27:43.196Z,19.58
2023-01-18T09:32:45.814Z,19.38
2023-01-18T09:37:48.506Z,20.30
2023-01-18T09:42:52.766Z,19.60
2023-01-18T09:48:05.884Z,18.30
2023-01-18T09:53:26.972Z,18.90
2023-01-18T09:59:15.226Z,19.17
2023-01-18T10:04:20.676Z,18.08
2023-01-18T10:09:30.086Z,18.75
2023-01-18T10:15:31.961Z,19.45
2023-01-18T10:20:57.326Z,18.77
2023-01-18T10:26:04.095Z,18.70
2023-01-18T10:31:44.403Z,20.83
2023-01-18T10:36:55.365Z,18.50
2023-01-18T10:42:02.744Z,20.20
2023-01-18T10:47:06.160Z,19.48
2023-01-18T10:52:28.718Z,19.42
2023-01-18T10:57:37.448Z,19.10
2023-01-18T11:02:40.641Z,19.13
2023-01-18T11:07:43.302Z,19.17
2023-01-18T11:12:48.082Z,19.15
2023-01-18T11:17:50.744Z,19.92
2023-01-18T11:23:01.813Z,18.73
2023-01-18T11:28:07.575Z,20.40
2023-01-18T11:33:18.685Z,19.08
2023-01-18T11:38:26.780Z,19.07
2023-01-18T11:43:32.770Z,19.67
2023-01-18T11:48:42.249Z,22.00
2023-01-18T11:53:54.407Z,19.23
2023-01-18T11:58:57.330Z,18.60
2023-01-18T12:04:23.326Z,22.50
2023-01-18T12:09:43.416Z,21.83
2023-01-18T12:15:43.179Z,21.77
2023-01-18T12:21:27.579Z,20.80
2023-01-18T12:26:35.807Z,21.10
2023-01-18T12:31:40.960Z,22.17
2023-01-18T12:36:49.387Z,22.67
2023-01-18T12:42:05.817Z,20.40
2023-01-18T12:47:39.614Z,21.27
2023-01-18T12:53:02.966Z,21.42
2023-01-18T12:58:06.643Z,20.05
2023-01-18T13:03:16.566Z,17.92
2023-01-18T13:08:59.715Z,20.95
2023-01-18T13:14:33.587Z,16.67
2023-01-18T13:19:54.679Z,17.48
2023-01-18T13:25:19.492Z,14.13
2023-01-18T13:30:22.182Z,15.75
2023-01-18T13:35:33.317Z,18.08
2023-01-18T13:40:43.107Z,16.03
2023-01-18T13:46:08.329Z,15.82
2023-01-18T13:51:37.119Z,15.57
2023-01-18T13:56:40.624Z,16.30
2023-01-18T14:01:45.655Z,15.57
2023-01-18T14:06:49.589Z,14.43
2023-01-18T14:11:55.487Z,15.50
2023-01-18T14:17:12.942Z,15.77
2023-01-18T14:22:21.267Z,15.82
2023-01-18T14:27:28.517Z,14.27
2023-01-18T14:32:37.827Z,15.35
2023-01-18T14:37:40.354Z,15.38
2023-01-18T14:42:51.069Z,15.73
2023-01-18T14:47:59.445Z,14.73
2023-01-18T14:53:02.245Z,14.70
2023-01-18T14:58:14.774Z,16.00
2023-01-18T15:03:26.434Z,17.23
2023-01-18T15:08:31.450Z,14.18
2023-01-18T15:13:47.467Z,15.52
2023-01-18T15:18:52.197Z,14.27
2023-01-18T15:24:02.708Z,15.35
2023-01-18T15:29:13.651Z,14.13
2023-01-18T15:34:18.830Z,14.48
2023-01-18T15:39:21.591Z,13.38
2023-01-18T15:44:40.735Z,14.15
2023-01-18T15:49:51.999Z,13.30
2023-01-18T15:54:55.450Z,13.20
2023-01-18T16:00:01.900Z,12.57
2023-01-18T16:05:20.433Z,12.05
2023-01-18T16:10:33.114Z,11.52
2023-01-18T16:15:35.801Z,12.18
2023-01-18T16:20:38.854Z,12.90
2023-01-18T16:25:41.807Z,13.70
2023-01-18T16:30:50.286Z,12.77
2023-01-18T16:35:53.127Z,12.40
2023-01-18T16:40:55.695Z,11.90
2023-01-18T16:45:59.121Z,13.25
2023-01-18T16:51:01.970Z,13.20
2023-01-18T16:56:04.656Z,13.30
2023-01-18T17:01:12.799Z,14.75
2023-01-18T17:06:22.855Z,17.27
2023-01-18T17:11:25.615Z,15.60
2023-01-18T17:16:28.273Z,15.30
2023-01-18T17:21:30.971Z,17.45
2023-01-18T17:26:33.608Z,16.38
2023-01-18T17:31:41.661Z,16.98
2023-01-18T17:36:47.399Z,17.83
2023-01-18T17:41:50.130Z,17.02
2023-01-18T17:46:52.876Z,16.70
2023-01-18T17:51:55.558Z,17.20
2023-01-18T17:56:58.151Z,17.20
2023-01-18T18:02:00.776Z,17.98
2023-01-18T18:07:03.786Z,17.45
2023-01-18T18:12:10.473Z,19.75
2023-01-18T18:17:13.135Z,19.23
2023-01-18T18:22:15.975Z,19.73
2023-01-18T18:27:19.081Z,19.20
2023-01-18T18:32:24.499Z,19.27
2023-01-18T18:37:27.084Z,20.05
2023-01-18T18:42:29.683Z,19.92
2023-01-18T18:47:32.581Z,21.30
2023-01-18T18:52:35.412Z,19.40
2023-01-18T18:57:37.984Z,19.88
2023-01-18T19:02:40.552Z,20.10
2023-01-18T19:07:43.580Z,20.88
2023-01-18T19:12:46.117Z,23.73
2023-01-18T19:17:50.585Z,22.02
2023-01-18T19:22:53.343Z,21.42
2023-01-18T19:27:55.910Z,21.42
2023-01-18T19:33:00.031Z,22.90
2023-01-18T19:38:03.036Z,24.00
2023-01-18T19:43:05.755Z,22.23
2023-01-18T19:48:08.437Z,18.50
2023-01-18T19:53:11.139Z,23.55
2023-01-18T19:58:13.713Z,22.95
2023-01-18T20:03:16.308Z,21.88
2023-01-18T20:08:19.035Z,23.40
2023-01-18T20:13:21.588Z,26.90
2023-01-18T20:18:24.180Z,23.85
2023-01-18T20:23:26.718Z,23.55
2023-01-18T20:28:29.474Z,22.77
2023-01-18T20:33:33.644Z,24.23
2023-01-18T20:38:36.244Z,25.45
2023-01-18T20:43:39.020Z,23.85
2023-01-18T20:48:41.615Z,23.50
2023-01-18T20:53:44.234Z,25.00
2023-01-18T20:58:46.762Z,23.80
2023-01-18T21:03:54.573Z,24.02
2023-01-18T21:08:58.599Z,22.45
2023-01-18T21:14:01.380Z,23.83
2023-01-18T21:19:04.581Z,23.42
2023-01-18T21:24:07.426Z,22.20
2023-01-18T21:29:10.011Z,22.48
2023-01-18T21:34:12.715Z,22.25
2023-01-18T21:39:18.519Z,21.58
2023-01-18T21:44:39.521Z,21.75
2023-01-18T21:50:17.851Z,22.92
2023-01-18T21:55:21.854Z,22.25
2023-01-18T22:00:24.448Z,23.83
2023-01-18T22:05:27.077Z,23.50
2023-01-18T22:10:29.858Z,23.58
2023-01-18T22:15:32.546Z,21.33
2023-01-18T22:20:35.394Z,20.88
2023-01-18T22:25:38.053Z,22.63
2023-01-18T22:30:40.604Z,22.90
2023-01-18T22:35:43.564Z,21.77
2023-01-18T22:40:46.158Z,23.33
2023-01-18T22:45:55.442Z,20.88
2023-01-18T22:51:02.686Z,20.73
2023-01-18T22:56:08.665Z,20.83
2023-01-18T23:01:26.762Z,18.50
2023-01-18T23:06:42.287Z,18.23
2023-01-18T23:11:45.778Z,18.15
2023-01-18T23:17:07.121Z,18.42
2023-01-18T23:22:10.660Z,17.45
2023-01-18T23:27:13.179Z,18.15
2023-01-18T23:32:15.756Z,18.90
2023-01-18T23:37:18.332Z,18.63
2023-01-18T23:42:40.051Z,17.25
2023-01-18T23:48:01.843Z,18.43
2023-01-18T23:58:26.087Z,17.17
